CheckWX is a tool to help pilots better visualize weather data.  It is not intended as a substitute for an official pre-flight weather briefing.

18:36:29 UTC

CYFO METAR
Flin Flon Airport
Flin Flon, Canada
Current

36 mins ago

CYFO 221800Z 16007KT 15SM SKC M17/M21 A3002 RMK SLP206
Observed
Feb-22 @ 18:00 UTC
Wind
  • 160° at 7 KTS
Visibility
15 SM
Flight Rules
VFR
Cloud Levels
  • Clear skies
Temperature
-17°C / 1°F
Dewpoint
-21°C / -6°F
Humidity
71%
Altimeter
30.02" Hg
Pressure
1020.6 hPa
Previous

2 hours ago

CYFO 221700Z 16006KT 15SM SKC M20/M23 A3003 RMK SLP209
Observed
Feb-22 @ 17:00 UTC
Wind
  • 160° at 6 KTS
Visibility
15 SM
Flight Rules
VFR
Cloud Levels
  • Clear skies
Temperature
-20°C / -4°F
Dewpoint
-23°C / -9°F
Humidity
77%
Altimeter
30.03" Hg
Pressure
1020.9 hPa
Previous

3 hours ago

CYFO 221600Z 17006KT 15SM FEW250 M23/M26 A3003 RMK CI1 SLP211
Observed
Feb-22 @ 16:00 UTC
Wind
  • 170° at 6 KTS
Visibility
15 SM
Flight Rules
VFR
Cloud Levels
  • Few at 25,000' AGL
Temperature
-23°C / -9°F
Dewpoint
-26°C / -15°F
Humidity
77%
Altimeter
30.03" Hg
Pressure
1021.1 hPa